createdAt,value
2018-06-11T00:00:58.607Z,20.03
2018-06-11T00:03:26.688Z,21.63
2018-06-11T00:05:54.812Z,21.47
2018-06-11T00:08:22.945Z,18.80
2018-06-11T00:10:51.059Z,22.40
2018-06-11T00:13:19.144Z,18.33
2018-06-11T00:15:47.220Z,18.70
2018-06-11T00:18:15.316Z,18.87
2018-06-11T00:20:43.376Z,20.27
2018-06-11T00:23:11.452Z,18.57
2018-06-11T00:25:39.540Z,19.83
2018-06-11T00:28:07.694Z,18.13
2018-06-11T00:30:35.792Z,18.27
2018-06-11T00:33:03.919Z,20.07
2018-06-11T00:35:32.079Z,19.37
2018-06-11T00:38:00.291Z,23.03
2018-06-11T00:40:28.405Z,18.60
2018-06-11T00:42:56.461Z,18.20
2018-06-11T00:45:24.579Z,19.67
2018-06-11T00:47:52.692Z,17.37
2018-06-11T00:50:20.808Z,18.33
2018-06-11T00:52:48.872Z,17.43
2018-06-11T00:55:16.947Z,19.43
2018-06-11T00:57:44.999Z,18.53
2018-06-11T01:00:13.060Z,16.93
2018-06-11T01:02:41.152Z,17.37
2018-06-11T01:05:09.212Z,17.67
2018-06-11T01:07:37.299Z,17.47
2018-06-11T01:10:05.360Z,19.60
2018-06-11T01:12:33.438Z,19.43
2018-06-11T01:15:01.515Z,19.53
2018-06-11T01:17:29.590Z,20.17
2018-06-11T01:19:57.667Z,20.03
2018-06-11T01:22:25.719Z,17.67
2018-06-11T01:24:53.809Z,18.83
2018-06-11T01:27:22.020Z,18.80
2018-06-11T01:29:50.076Z,16.97
2018-06-11T01:32:18.143Z,23.37
2018-06-11T01:34:46.300Z,20.43
2018-06-11T01:37:14.337Z,18.40
2018-06-11T01:39:42.415Z,17.70
2018-06-11T01:42:10.515Z,17.80
2018-06-11T01:44:38.588Z,20.47
2018-06-11T01:47:06.645Z,17.50
2018-06-11T01:49:34.741Z,18.57
2018-06-11T01:52:02.817Z,18.27
2018-06-11T01:54:30.905Z,16.67
2018-06-11T01:56:58.977Z,16.27
2018-06-11T01:59:27.064Z,17.17
2018-06-11T02:01:55.129Z,16.73
2018-06-11T02:04:23.183Z,20.77
2018-06-11T02:06:51.259Z,17.73
2018-06-11T02:09:19.335Z,18.47
2018-06-11T02:11:47.405Z,17.40
2018-06-11T02:14:15.454Z,20.50
2018-06-11T02:16:43.562Z,21.00
2018-06-11T02:19:11.629Z,19.17
2018-06-11T02:21:39.682Z,22.00
2018-06-11T02:24:07.777Z,21.53
2018-06-11T02:26:35.971Z,22.53
2018-06-11T02:29:04.084Z,21.53
2018-06-11T02:31:32.237Z,20.97
2018-06-11T02:34:00.366Z,22.33
2018-06-11T02:36:28.487Z,22.90
2018-06-11T02:38:56.554Z,20.93
2018-06-11T02:41:24.611Z,20.53
2018-06-11T02:43:52.702Z,21.43
2018-06-11T02:46:20.801Z,22.23
2018-06-11T02:48:48.966Z,20.43
2018-06-11T02:51:17.041Z,24.00
2018-06-11T02:53:45.113Z,21.80
2018-06-11T02:56:13.208Z,22.37
2018-06-11T02:58:41.294Z,21.37
2018-06-11T03:01:09.374Z,20.57
2018-06-11T03:03:37.479Z,22.67
2018-06-11T03:06:05.657Z,21.50
2018-06-11T03:08:33.828Z,20.93
2018-06-11T03:11:01.986Z,21.47
2018-06-11T03:13:30.109Z,20.07
2018-06-11T03:15:58.239Z,20.97
2018-06-11T03:18:26.328Z,20.80
2018-06-11T03:20:54.713Z,19.70
2018-06-11T03:23:22.835Z,18.43
2018-06-11T03:25:50.948Z,19.40
2018-06-11T03:28:19.039Z,19.43
2018-06-11T03:30:47.105Z,17.83
2018-06-11T03:33:15.175Z,17.90
2018-06-11T03:35:43.323Z,20.83
2018-06-11T03:38:11.375Z,18.00
2018-06-11T03:40:39.569Z,17.53
2018-06-11T03:43:07.641Z,18.57
2018-06-11T03:45:35.776Z,16.83
2018-06-11T03:48:03.898Z,19.63
2018-06-11T03:50:32.020Z,19.30
2018-06-11T03:53:00.429Z,17.83
2018-06-11T03:55:28.528Z,16.33
2018-06-11T03:57:56.640Z,17.87
2018-06-11T04:00:24.742Z,14.60
2018-06-11T04:02:52.930Z,16.10
2018-06-11T04:05:21.023Z,15.87
2018-06-11T04:07:49.108Z,15.83
2018-06-11T04:10:17.305Z,16.07
2018-06-11T04:12:45.360Z,14.30
2018-06-11T04:15:13.436Z,14.47
2018-06-11T04:17:41.524Z,15.03
2018-06-11T04:20:09.610Z,15.87
2018-06-11T04:22:37.692Z,14.40
2018-06-11T04:25:05.836Z,15.17
2018-06-11T04:27:33.937Z,15.63
2018-06-11T04:30:02.066Z,15.47
2018-06-11T04:32:30.200Z,15.60
2018-06-11T04:34:58.333Z,14.00
2018-06-11T04:37:26.396Z,13.60
2018-06-11T04:39:54.595Z,14.60
2018-06-11T04:42:22.721Z,14.47
2018-06-11T04:44:50.817Z,15.93
2018-06-11T04:47:18.885Z,14.90
2018-06-11T04:49:46.980Z,15.27
2018-06-11T04:52:15.026Z,14.77
2018-06-11T04:54:43.091Z,15.27
2018-06-11T04:57:11.164Z,14.63
2018-06-11T04:59:39.225Z,16.50
2018-06-11T05:02:07.494Z,15.87
2018-06-11T05:04:35.539Z,15.13
2018-06-11T05:07:03.657Z,14.13
2018-06-11T05:09:31.728Z,15.87
2018-06-11T05:11:59.819Z,14.30
2018-06-11T05:14:27.908Z,13.73
2018-06-11T05:16:56.045Z,15.40
2018-06-11T05:19:24.148Z,14.80
2018-06-11T05:21:52.243Z,13.90
2018-06-11T05:24:20.353Z,15.13
2018-06-11T05:26:48.427Z,14.57
2018-06-11T05:29:16.603Z,14.17
2018-06-11T05:31:44.696Z,13.67
2018-06-11T05:34:12.825Z,16.97
2018-06-11T05:36:40.919Z,16.17
2018-06-11T05:39:09.010Z,14.90
2018-06-11T05:41:37.162Z,14.83
2018-06-11T05:44:05.623Z,15.00
2018-06-11T05:46:33.703Z,14.63
2018-06-11T05:49:02.019Z,14.37
2018-06-11T05:51:30.448Z,14.77
2018-06-11T05:53:58.575Z,14.77
2018-06-11T05:56:26.636Z,14.03
2018-06-11T05:58:54.714Z,13.90
2018-06-11T06:01:22.824Z,13.53
2018-06-11T06:03:50.905Z,13.77
2018-06-11T06:06:18.973Z,13.30
2018-06-11T06:08:47.145Z,13.03
2018-06-11T06:11:15.278Z,14.00
2018-06-11T06:13:43.418Z,13.37
2018-06-11T06:16:11.566Z,13.67
2018-06-11T06:18:39.659Z,12.83
2018-06-11T06:21:07.727Z,14.93
2018-06-11T06:23:35.780Z,13.90
2018-06-11T06:26:04.288Z,13.63
2018-06-11T06:28:32.356Z,14.47
2018-06-11T06:31:00.484Z,13.75
2018-06-11T06:33:28.549Z,13.70
2018-06-11T06:35:56.611Z,13.48
2018-06-11T06:38:25.342Z,14.23
2018-06-11T06:40:53.404Z,13.50
2018-06-11T06:43:21.476Z,13.85
2018-06-11T06:45:49.540Z,14.73
2018-06-11T06:48:18.499Z,14.03
2018-06-11T06:50:46.696Z,15.00
2018-06-11T06:53:14.767Z,12.53
2018-06-11T06:55:42.836Z,13.95
2018-06-11T06:58:10.980Z,14.00
2018-06-11T07:00:39.108Z,12.82
2018-06-11T07:03:07.281Z,13.88
2018-06-11T07:05:35.376Z,13.35
2018-06-11T07:08:03.476Z,13.93
2018-06-11T07:10:31.526Z,12.95
2018-06-11T07:12:59.607Z,12.07
2018-06-11T07:15:27.716Z,13.20
2018-06-11T07:17:55.891Z,12.05
2018-06-11T07:20:23.973Z,12.53
2018-06-11T07:22:52.020Z,12.47
2018-06-11T07:25:20.127Z,12.05
2018-06-11T07:28:06.005Z,11.68
2018-06-11T07:30:34.152Z,10.58
2018-06-11T07:33:02.202Z,10.93
2018-06-11T07:35:30.266Z,12.07
2018-06-11T07:37:58.355Z,15.35
2018-06-11T07:40:26.423Z,13.85
2018-06-11T07:42:54.545Z,11.10
2018-06-11T07:45:22.631Z,11.63
2018-06-11T07:47:50.679Z,11.95
2018-06-11T07:50:18.743Z,12.68
2018-06-11T07:52:46.807Z,12.93
2018-06-11T07:55:14.954Z,13.38
2018-06-11T07:57:43.012Z,12.05
2018-06-11T08:00:11.451Z,11.88
2018-06-11T08:02:39.538Z,9.93
2018-06-11T08:05:07.584Z,10.35
2018-06-11T08:07:36.636Z,10.60
2018-06-11T08:10:04.726Z,12.30
2018-06-11T08:12:33.090Z,10.03
2018-06-11T08:15:01.175Z,9.98
2018-06-11T08:17:29.307Z,10.08
2018-06-11T08:19:57.370Z,11.40
2018-06-11T08:22:25.442Z,10.65
2018-06-11T08:24:53.510Z,10.15
2018-06-11T08:27:21.671Z,8.60
2018-06-11T08:29:49.762Z,10.32
2018-06-11T08:32:17.840Z,10.13
2018-06-11T08:34:45.932Z,8.35
2018-06-11T08:37:14.142Z,8.48
2018-06-11T08:39:42.269Z,8.50
2018-06-11T08:42:10.431Z,8.58
2018-06-11T08:44:38.523Z,9.80
2018-06-11T08:47:06.612Z,9.75
2018-06-11T08:49:34.702Z,8.18
2018-06-11T08:52:02.853Z,8.08
2018-06-11T08:54:30.965Z,8.98
2018-06-11T08:56:59.060Z,7.60
2018-06-11T08:59:27.159Z,9.00
2018-06-11T09:01:55.515Z,10.15
2018-06-11T09:04:23.624Z,9.90
2018-06-11T09:06:51.815Z,9.78
2018-06-11T09:09:20.004Z,12.90
2018-06-11T09:11:48.080Z,9.70
2018-06-11T09:14:16.151Z,9.23
2018-06-11T09:16:44.247Z,8.70
2018-06-11T09:19:12.348Z,8.53
2018-06-11T09:21:40.543Z,8.28
2018-06-11T09:24:08.607Z,11.78
2018-06-11T09:26:36.710Z,9.15
2018-06-11T09:29:04.755Z,8.38
2018-06-11T09:31:32.868Z,9.75
2018-06-11T09:34:00.950Z,9.28
2018-06-11T09:36:29.081Z,8.83
2018-06-11T09:38:57.217Z,10.08
2018-06-11T09:41:25.449Z,8.65
2018-06-11T09:43:53.647Z,10.05
2018-06-11T09:46:21.760Z,9.68
2018-06-11T09:48:49.879Z,12.93
2018-06-11T09:51:17.991Z,10.45
2018-06-11T09:53:46.088Z,10.68
2018-06-11T09:56:14.165Z,8.23
2018-06-11T09:58:42.497Z,10.23
2018-06-11T10:01:10.594Z,8.75
2018-06-11T10:03:38.667Z,8.53
2018-06-11T10:06:06.739Z,8.15
2018-06-11T10:08:34.839Z,8.70
2018-06-11T10:11:03.050Z,9.98
2018-06-11T10:13:31.216Z,8.58
2018-06-11T10:15:59.366Z,10.10
2018-06-11T10:18:27.465Z,9.68
2018-06-11T10:20:55.553Z,9.33
2018-06-11T10:23:23.667Z,8.93
2018-06-11T10:25:51.768Z,11.18
2018-06-11T10:28:19.837Z,9.38
2018-06-11T10:30:48.083Z,12.05
2018-06-11T10:33:16.175Z,8.93
2018-06-11T10:35:44.229Z,8.45
2018-06-11T10:38:12.297Z,10.32
2018-06-11T10:40:40.587Z,11.38
2018-06-11T10:43:08.943Z,10.23
2018-06-11T10:45:37.090Z,10.78
2018-06-11T10:48:05.523Z,11.68
2018-06-11T10:50:33.581Z,10.43
2018-06-11T10:53:01.664Z,11.28
2018-06-11T10:55:29.770Z,9.90
2018-06-11T10:57:57.893Z,10.30
2018-06-11T11:00:26.231Z,11.50
2018-06-11T11:02:54.314Z,11.55
2018-06-11T11:05:22.454Z,12.03
2018-06-11T11:07:50.568Z,11.90
2018-06-11T11:10:18.683Z,11.78
2018-06-11T11:12:46.810Z,15.15
2018-06-11T11:15:14.925Z,10.98
2018-06-11T11:17:43.041Z,10.60
2018-06-11T11:20:11.117Z,12.15
2018-06-11T11:22:39.227Z,10.93
2018-06-11T11:25:07.330Z,9.95
2018-06-11T11:27:35.771Z,11.48
2018-06-11T11:30:05.164Z,12.25
2018-06-11T11:32:33.248Z,11.83
2018-06-11T11:35:01.401Z,9.30
2018-06-11T11:37:29.529Z,11.10
2018-06-11T11:39:57.629Z,9.73
2018-06-11T11:42:25.728Z,10.48
2018-06-11T11:44:53.865Z,10.98
2018-06-11T11:47:22.324Z,12.65
2018-06-11T11:49:50.420Z,11.03
2018-06-11T11:52:18.493Z,11.03
2018-06-11T11:54:46.621Z,11.63
2018-06-11T11:57:15.042Z,11.80
2018-06-11T11:59:43.123Z,10.45
2018-06-11T12:02:11.200Z,9.68
2018-06-11T12:04:39.595Z,9.35
2018-06-11T12:07:07.737Z,11.10
2018-06-11T12:09:35.810Z,10.45
2018-06-11T12:12:03.893Z,9.60
2018-06-11T12:14:32.439Z,9.68
2018-06-11T12:17:00.573Z,9.38
2018-06-11T12:19:28.734Z,8.38
2018-06-11T12:21:56.818Z,8.23
2018-06-11T12:24:24.921Z,9.83
2018-06-11T12:26:52.993Z,9.38
2018-06-11T12:29:21.126Z,9.05
2018-06-11T12:31:49.283Z,10.72
2018-06-11T12:34:17.388Z,10.75
2018-06-11T12:36:45.495Z,10.72
2018-06-11T12:39:13.656Z,10.95
2018-06-11T12:41:41.724Z,10.78
2018-06-11T12:44:09.809Z,10.40
2018-06-11T12:46:37.892Z,10.00
2018-06-11T12:49:05.952Z,9.75
2018-06-11T12:51:34.060Z,10.57
2018-06-11T12:54:02.143Z,10.50
2018-06-11T12:56:30.259Z,9.20
2018-06-11T12:58:58.567Z,15.72
2018-06-11T13:01:26.667Z,12.13
2018-06-11T13:03:54.732Z,13.18
2018-06-11T13:06:22.947Z,11.53
2018-06-11T13:08:51.084Z,12.45
2018-06-11T13:11:19.150Z,12.88
2018-06-11T13:13:47.207Z,12.03
2018-06-11T13:16:15.334Z,12.18
2018-06-11T13:18:43.429Z,11.03
2018-06-11T13:21:11.467Z,10.82
2018-06-11T13:23:39.569Z,13.20
2018-06-11T13:26:07.799Z,12.45
2018-06-11T13:28:35.874Z,14.35
2018-06-11T13:31:03.952Z,12.18
2018-06-11T13:33:32.055Z,13.48
2018-06-11T13:36:00.100Z,13.50
2018-06-11T13:38:28.200Z,12.78
2018-06-11T13:40:56.291Z,12.65
2018-06-11T13:43:24.363Z,12.63
2018-06-11T13:45:52.450Z,10.80
2018-06-11T13:48:20.560Z,13.32
2018-06-11T13:50:48.644Z,14.07
2018-06-11T13:53:16.743Z,11.55
2018-06-11T13:55:44.823Z,12.80
2018-06-11T13:58:13.764Z,11.20
2018-06-11T14:00:41.817Z,9.80
2018-06-11T14:03:09.903Z,10.40
2018-06-11T14:05:38.023Z,11.28
2018-06-11T14:08:07.108Z,11.97
2018-06-11T14:10:35.177Z,9.53
2018-06-11T14:13:03.323Z,8.58
2018-06-11T14:15:31.391Z,11.68
2018-06-11T14:17:59.506Z,12.43
2018-06-11T14:20:27.920Z,12.33
2018-06-11T14:22:56.005Z,12.60
2018-06-11T14:25:24.089Z,11.43
2018-06-11T14:27:52.481Z,13.18
2018-06-11T14:30:22.695Z,12.03
2018-06-11T14:32:50.759Z,13.58
2018-06-11T14:35:19.697Z,10.65
2018-06-11T14:37:47.795Z,9.68
2018-06-11T14:40:16.795Z,7.47
2018-06-11T14:42:45.037Z,9.60
2018-06-11T14:45:13.067Z,11.55
2018-06-11T14:47:42.147Z,10.58
2018-06-11T14:50:10.189Z,10.43
2018-06-11T14:52:39.097Z,9.13
2018-06-11T14:55:08.743Z,11.25
2018-06-11T14:57:37.999Z,10.90
2018-06-11T15:00:06.251Z,11.48
2018-06-11T15:02:34.317Z,12.23
2018-06-11T15:05:03.180Z,9.10
2018-06-11T15:07:32.632Z,12.70
2018-06-11T15:10:03.782Z,9.35
2018-06-11T15:12:41.731Z,9.23
2018-06-11T15:15:11.043Z,10.90
2018-06-11T15:17:40.677Z,9.83
2018-06-11T15:20:08.897Z,8.50
2018-06-11T15:22:36.946Z,7.33
2018-06-11T15:25:05.556Z,11.83
2018-06-11T15:27:33.631Z,10.35
2018-06-11T15:30:01.699Z,8.30
2018-06-11T15:32:29.741Z,10.15
2018-06-11T15:34:57.817Z,9.03
2018-06-11T15:37:26.061Z,7.95
2018-06-11T15:39:54.132Z,10.15
2018-06-11T15:42:22.204Z,10.70
2018-06-11T15:44:52.100Z,7.85
2018-06-11T15:47:20.190Z,7.90
2018-06-11T15:49:48.367Z,9.73
2018-06-11T15:52:16.423Z,11.20
2018-06-11T15:54:44.537Z,10.15
2018-06-11T15:57:13.300Z,11.05
2018-06-11T15:59:41.396Z,9.78
2018-06-11T16:02:09.864Z,9.28
2018-06-11T16:04:38.916Z,9.13
2018-06-11T16:07:06.960Z,9.00
2018-06-11T16:09:35.637Z,10.53
2018-06-11T16:12:03.851Z,9.60
2018-06-11T16:14:31.903Z,10.80
2018-06-11T16:17:00.065Z,10.43
2018-06-11T16:19:28.396Z,11.33
2018-06-11T16:21:56.540Z,12.88
2018-06-11T16:24:24.595Z,12.58
2018-06-11T16:26:52.680Z,10.75
2018-06-11T16:29:20.715Z,10.68
2018-06-11T16:31:48.759Z,10.80
2018-06-11T16:34:16.828Z,11.20
2018-06-11T16:36:44.963Z,12.15
2018-06-11T16:39:13.059Z,9.15
2018-06-11T16:41:41.088Z,11.18
2018-06-11T16:44:09.133Z,11.03
2018-06-11T16:46:37.319Z,9.98
2018-06-11T16:49:05.439Z,10.88
2018-06-11T16:51:33.443Z,10.00
2018-06-11T16:54:01.538Z,10.82
2018-06-11T16:56:29.789Z,10.25
2018-06-11T16:58:57.883Z,11.38
2018-06-11T17:01:26.015Z,12.88
2018-06-11T17:03:54.184Z,10.88
2018-06-11T17:06:22.295Z,14.00
2018-06-11T17:08:50.766Z,10.35
2018-06-11T17:11:18.917Z,9.98
2018-06-11T17:13:46.999Z,10.58
2018-06-11T17:16:15.110Z,11.43
2018-06-11T17:18:43.201Z,14.05
2018-06-11T17:21:11.366Z,11.20
2018-06-11T17:23:40.716Z,10.15
2018-06-11T17:26:08.908Z,10.72
2018-06-11T17:28:36.968Z,13.85
2018-06-11T17:31:05.136Z,10.98
2018-06-11T17:33:33.227Z,14.87
2018-06-11T17:36:01.301Z,10.25
2018-06-11T17:38:29.367Z,10.78
2018-06-11T17:40:57.455Z,9.28
2018-06-11T17:43:25.558Z,9.40
2018-06-11T17:45:53.691Z,9.23
2018-06-11T17:48:21.801Z,11.10
2018-06-11T17:50:50.863Z,9.55
2018-06-11T17:53:19.572Z,12.23
2018-06-11T17:55:47.633Z,10.20
2018-06-11T17:58:15.707Z,10.10
2018-06-11T18:00:45.381Z,11.68
2018-06-11T18:03:13.484Z,10.82
2018-06-11T18:05:41.561Z,9.43
2018-06-11T18:08:09.719Z,9.58
2018-06-11T18:10:37.811Z,8.90
2018-06-11T18:13:05.964Z,10.15
2018-06-11T18:15:34.413Z,9.33
2018-06-11T18:18:02.667Z,8.80
2018-06-11T18:20:30.780Z,7.95
2018-06-11T18:22:59.165Z,9.13
2018-06-11T18:25:27.276Z,6.85
2018-06-11T18:27:55.415Z,6.33
2018-06-11T18:30:23.512Z,6.17
2018-06-11T18:32:51.655Z,6.35
2018-06-11T18:35:19.764Z,6.45
2018-06-11T18:37:47.871Z,6.97
2018-06-11T18:40:16.057Z,7.37
2018-06-11T18:42:44.148Z,6.30
2018-06-11T18:45:12.219Z,8.75
2018-06-11T18:47:40.509Z,8.10
2018-06-11T18:50:08.593Z,8.55
2018-06-11T18:52:36.652Z,8.60
2018-06-11T18:55:04.971Z,5.58
2018-06-11T18:57:33.028Z,6.78
2018-06-11T19:00:01.215Z,7.90
2018-06-11T19:02:29.536Z,8.83
2018-06-11T19:04:58.691Z,5.97
2018-06-11T19:07:26.815Z,6.65
2018-06-11T19:09:54.911Z,6.03
2018-06-11T19:12:23.016Z,6.70
2018-06-11T19:14:51.087Z,6.77
2018-06-11T19:17:19.318Z,7.33
2018-06-11T19:19:47.352Z,7.58
2018-06-11T19:22:15.570Z,7.05
2018-06-11T19:24:43.609Z,8.00
2018-06-11T19:27:11.891Z,7.40
2018-06-11T19:29:40.124Z,7.70
2018-06-11T19:32:08.161Z,7.30
2018-06-11T19:34:36.564Z,7.62
2018-06-11T19:37:04.737Z,6.95
2018-06-11T19:39:32.963Z,8.80
2018-06-11T19:42:01.300Z,7.27
2018-06-11T19:44:29.537Z,7.47
2018-06-11T19:46:57.635Z,7.63
2018-06-11T19:49:25.767Z,8.17
2018-06-11T19:51:53.898Z,9.13
2018-06-11T19:54:22.034Z,10.85
2018-06-11T19:56:50.188Z,7.70
2018-06-11T19:59:18.613Z,8.13
2018-06-11T20:01:47.699Z,7.30
2018-06-11T20:04:15.741Z,12.50
2018-06-11T20:06:43.827Z,13.93
2018-06-11T20:09:11.961Z,9.17
2018-06-11T20:11:40.257Z,8.00
2018-06-11T20:14:08.315Z,8.40
2018-06-11T20:16:36.403Z,6.63
2018-06-11T20:19:04.526Z,7.23
2018-06-11T20:21:35.042Z,8.97
2018-06-11T20:24:06.533Z,6.83
2018-06-11T20:26:34.588Z,8.33
2018-06-11T20:29:02.723Z,11.30
2018-06-11T20:31:30.858Z,8.73
2018-06-11T20:34:00.231Z,10.20
2018-06-11T20:36:28.700Z,7.80
2018-06-11T20:38:56.791Z,9.33
2018-06-11T20:41:25.640Z,7.83
2018-06-11T20:43:53.849Z,8.90
2018-06-11T20:46:22.008Z,6.87
2018-06-11T20:48:50.255Z,10.00
2018-06-11T20:51:18.426Z,6.97
2018-06-11T20:53:46.601Z,9.10
2018-06-11T20:56:15.073Z,10.23
2018-06-11T20:58:45.419Z,8.27
2018-06-11T21:01:15.701Z,8.37
2018-06-11T21:03:46.929Z,10.40
2018-06-11T21:06:15.103Z,10.87
2018-06-11T21:08:43.256Z,11.53
2018-06-11T21:11:11.363Z,10.57
2018-06-11T21:13:39.983Z,11.70
2018-06-11T21:16:10.870Z,10.70
2018-06-11T21:18:38.940Z,10.53
2018-06-11T21:21:07.029Z,10.60
2018-06-11T21:23:36.096Z,12.90
2018-06-11T21:26:04.439Z,12.07
2018-06-11T21:28:32.574Z,13.90
2018-06-11T21:31:00.627Z,10.97
2018-06-11T21:33:28.843Z,12.60
2018-06-11T21:35:57.255Z,13.23
2018-06-11T21:38:26.708Z,12.40
2018-06-11T21:40:56.960Z,13.70
2018-06-11T21:43:25.066Z,12.03
2018-06-11T21:45:53.491Z,11.40
2018-06-11T21:48:22.139Z,12.90
2018-06-11T21:50:50.372Z,12.07
2018-06-11T21:53:18.694Z,12.33
2018-06-11T21:55:46.788Z,13.43
2018-06-11T21:58:15.024Z,11.60
2018-06-11T22:00:43.616Z,12.00
2018-06-11T22:03:11.689Z,12.70
2018-06-11T22:05:40.288Z,12.60
2018-06-11T22:08:08.535Z,12.93
2018-06-11T22:10:38.105Z,12.27
2018-06-11T22:13:06.824Z,14.87
2018-06-11T22:15:35.099Z,14.17
2018-06-11T22:18:03.365Z,15.20
2018-06-11T22:20:31.808Z,13.90
2018-06-11T22:23:00.119Z,14.90
2018-06-11T22:25:28.651Z,18.03
2018-06-11T22:27:56.883Z,17.00
2018-06-11T22:30:25.025Z,15.30
2018-06-11T22:32:53.083Z,15.80
2018-06-11T22:35:21.142Z,15.53
2018-06-11T22:37:49.229Z,18.63
2018-06-11T22:40:17.288Z,16.03
2018-06-11T22:42:45.339Z,16.50
2018-06-11T22:45:13.750Z,16.33
2018-06-11T22:47:41.819Z,16.00
2018-06-11T22:50:09.875Z,15.33
2018-06-11T22:52:38.027Z,14.77
2018-06-11T22:55:06.272Z,17.80
2018-06-11T22:57:34.459Z,16.33
2018-06-11T23:00:02.729Z,16.73
2018-06-11T23:02:30.868Z,17.93
2018-06-11T23:04:59.493Z,16.40
2018-06-11T23:07:28.463Z,16.13
2018-06-11T23:09:56.615Z,16.10
2018-06-11T23:12:24.727Z,15.23
2018-06-11T23:14:52.855Z,15.23
2018-06-11T23:17:20.927Z,18.30
2018-06-11T23:19:48.971Z,16.80
2018-06-11T23:22:17.041Z,15.40
2018-06-11T23:24:45.112Z,14.97
2018-06-11T23:27:13.160Z,18.23
2018-06-11T23:29:41.247Z,17.83
2018-06-11T23:32:09.372Z,16.43
2018-06-11T23:34:37.472Z,16.63
2018-06-11T23:37:05.615Z,13.47
2018-06-11T23:39:33.775Z,15.93
2018-06-11T23:42:02.060Z,18.70
2018-06-11T23:44:30.268Z,15.57
2018-06-11T23:46:58.417Z,14.73
2018-06-11T23:49:26.570Z,16.50
2018-06-11T23:51:54.663Z,13.67
2018-06-11T23:54:22.770Z,15.10
2018-06-11T23:56:50.948Z,17.47
2018-06-11T23:59:18.999Z,15.40
